createdAt,value
2023-10-02T00:00:09.443Z,20.49
2023-10-02T00:01:53.583Z,21.07
2023-10-02T00:03:31.016Z,21.27
2023-10-02T00:05:09.065Z,20.70
2023-10-02T00:06:45.763Z,20.94
2023-10-02T00:08:34.003Z,20.40
2023-10-02T00:10:10.652Z,20.71
2023-10-02T00:11:47.857Z,20.67
2023-10-02T00:13:23.539Z,21.26
2023-10-02T00:15:14.659Z,21.46
2023-10-02T00:17:02.411Z,21.24
2023-10-02T00:18:39.113Z,21.40
2023-10-02T00:20:24.164Z,20.96
2023-10-02T00:22:10.525Z,20.69
2023-10-02T00:24:01.608Z,20.82
2023-10-02T00:25:54.006Z,20.80
2023-10-02T00:27:33.109Z,20.68
2023-10-02T00:29:12.013Z,20.44
2023-10-02T00:30:47.841Z,20.19
2023-10-02T00:32:24.060Z,20.54
2023-10-02T00:33:59.982Z,20.55
2023-10-02T00:35:52.736Z,20.93
2023-10-02T00:37:48.641Z,20.45
2023-10-02T00:39:32.718Z,21.06
2023-10-02T00:41:10.420Z,20.83
2023-10-02T00:42:47.628Z,20.89
2023-10-02T00:44:24.623Z,20.49
2023-10-02T00:46:01.500Z,20.41
2023-10-02T00:47:40.868Z,20.84
2023-10-02T00:49:30.370Z,20.31
2023-10-02T00:51:13.434Z,20.12
2023-10-02T00:53:05.854Z,20.05
2023-10-02T00:54:41.782Z,20.14
2023-10-02T00:56:22.906Z,20.07
2023-10-02T00:58:00.339Z,20.25
2023-10-02T00:59:40.034Z,20.29
2023-10-02T01:01:16.645Z,20.44
2023-10-02T01:03:00.030Z,19.90
2023-10-02T01:04:38.711Z,20.91
2023-10-02T01:06:14.686Z,20.69
2023-10-02T01:07:56.616Z,20.99
2023-10-02T01:09:36.189Z,20.24
2023-10-02T01:11:16.032Z,20.12
2023-10-02T01:12:55.186Z,20.32
2023-10-02T01:14:50.684Z,20.19
2023-10-02T01:16:26.792Z,20.13
2023-10-02T01:18:29.437Z,20.32
2023-10-02T01:20:11.989Z,20.49
2023-10-02T01:21:49.384Z,20.10
2023-10-02T01:23:30.335Z,20.07
2023-10-02T01:25:17.479Z,20.22
2023-10-02T01:26:56.967Z,19.83
2023-10-02T01:28:53.201Z,20.51
2023-10-02T01:30:29.548Z,20.74
2023-10-02T01:32:09.726Z,20.58
2023-10-02T01:33:47.154Z,20.45
2023-10-02T01:35:24.519Z,20.38
2023-10-02T01:37:23.715Z,20.43
2023-10-02T01:39:18.311Z,20.14
2023-10-02T01:41:13.375Z,20.71
2023-10-02T01:42:49.817Z,21.34
2023-10-02T01:44:26.429Z,21.08
2023-10-02T01:46:02.712Z,21.06
2023-10-02T01:47:43.571Z,21.06
2023-10-02T01:49:29.939Z,20.41
2023-10-02T01:51:29.699Z,20.57
2023-10-02T01:53:08.323Z,20.45
2023-10-02T01:54:46.849Z,20.33
2023-10-02T01:56:24.918Z,20.44
2023-10-02T01:58:19.012Z,20.84
2023-10-02T02:00:15.131Z,20.73
2023-10-02T02:02:00.259Z,20.20
2023-10-02T02:03:36.900Z,20.07
2023-10-02T02:05:16.812Z,19.70
2023-10-02T02:06:54.919Z,20.46
2023-10-02T02:08:37.236Z,20.74
2023-10-02T02:10:12.981Z,20.64
2023-10-02T02:12:07.898Z,20.29
2023-10-02T02:13:54.352Z,20.52
2023-10-02T02:15:31.095Z,19.81
2023-10-02T02:17:13.876Z,19.61
2023-10-02T02:18:52.976Z,19.70
2023-10-02T02:20:46.174Z,19.89
2023-10-02T02:22:34.806Z,19.93
2023-10-02T02:24:10.834Z,19.76
2023-10-02T02:25:46.790Z,19.71
2023-10-02T02:27:23.951Z,20.44
2023-10-02T02:29:00.485Z,20.04
2023-10-02T02:30:42.789Z,19.48
2023-10-02T02:32:21.646Z,20.16
2023-10-02T02:34:02.167Z,19.76
2023-10-02T02:35:41.121Z,19.88
2023-10-02T02:37:18.848Z,20.10
2023-10-02T02:39:18.854Z,19.52
2023-10-02T02:41:07.416Z,20.06
2023-10-02T02:42:43.714Z,19.80
2023-10-02T02:44:37.992Z,20.21
2023-10-02T02:46:19.276Z,20.27
2023-10-02T02:47:56.691Z,19.64
2023-10-02T02:49:34.448Z,20.33
2023-10-02T02:51:17.174Z,19.50
2023-10-02T02:53:12.860Z,20.08
2023-10-02T02:55:01.510Z,20.36
2023-10-02T02:56:37.946Z,20.01
2023-10-02T02:58:14.278Z,20.16
2023-10-02T02:59:50.144Z,20.35
2023-10-02T03:01:26.754Z,19.56
2023-10-02T03:03:04.640Z,19.51
2023-10-02T03:04:40.946Z,19.58
2023-10-02T03:06:19.297Z,20.13
2023-10-02T03:07:58.527Z,19.64
2023-10-02T03:09:36.849Z,20.24
2023-10-02T03:11:13.340Z,19.89
2023-10-02T03:12:49.987Z,20.27
2023-10-02T03:14:26.906Z,20.47
2023-10-02T03:16:10.935Z,20.68
2023-10-02T03:17:47.964Z,20.27
2023-10-02T03:19:24.486Z,20.53
2023-10-02T03:21:16.493Z,20.06
2023-10-02T03:22:58.099Z,20.24
2023-10-02T03:24:35.724Z,20.49
2023-10-02T03:26:29.419Z,20.05
2023-10-02T03:28:06.013Z,19.95
2023-10-02T03:29:42.914Z,20.15
2023-10-02T03:31:37.130Z,19.62
2023-10-02T03:33:36.106Z,20.05
2023-10-02T03:35:14.424Z,20.31
2023-10-02T03:36:51.616Z,20.19
2023-10-02T03:38:28.387Z,20.32
2023-10-02T03:40:16.004Z,19.65
2023-10-02T03:41:57.970Z,20.08
2023-10-02T03:43:37.367Z,19.70
2023-10-02T03:45:14.790Z,19.61
2023-10-02T03:46:53.211Z,20.09
2023-10-02T03:48:30.929Z,20.75
2023-10-02T03:50:12.453Z,20.71
2023-10-02T03:51:51.075Z,20.57
2023-10-02T03:53:33.026Z,19.91
2023-10-02T03:55:20.249Z,20.28
2023-10-02T03:56:57.332Z,20.66
2023-10-02T03:58:40.807Z,20.28
2023-10-02T04:00:24.177Z,20.09
2023-10-02T04:02:21.506Z,20.59
2023-10-02T04:04:21.341Z,20.70
2023-10-02T04:05:57.684Z,19.97
2023-10-02T04:07:33.616Z,20.08
2023-10-02T04:09:29.729Z,20.31
2023-10-02T04:11:06.062Z,19.98
2023-10-02T04:12:52.641Z,20.02
2023-10-02T04:14:34.697Z,20.03
2023-10-02T04:16:28.809Z,20.32
2023-10-02T04:18:06.964Z,20.09
2023-10-02T04:19:54.557Z,20.19
2023-10-02T04:21:35.685Z,20.26
2023-10-02T04:23:23.205Z,20.18
2023-10-02T04:25:09.143Z,20.24
2023-10-02T04:26:46.698Z,19.95
2023-10-02T04:28:29.565Z,19.77
2023-10-02T04:30:14.590Z,20.23
2023-10-02T04:32:10.797Z,20.19
2023-10-02T04:33:54.174Z,19.88
2023-10-02T04:35:54.612Z,19.85
2023-10-02T04:37:33.978Z,20.78
2023-10-02T04:39:32.900Z,20.69
2023-10-02T04:41:28.193Z,19.97
2023-10-02T04:43:24.330Z,20.52
2023-10-02T04:45:00.218Z,19.86
2023-10-02T04:46:36.824Z,20.65
2023-10-02T04:48:13.701Z,19.84
2023-10-02T04:50:06.759Z,19.77
2023-10-02T04:51:48.747Z,19.80
2023-10-02T04:53:26.294Z,19.96
2023-10-02T04:55:09.158Z,19.89
2023-10-02T04:56:48.685Z,19.87
2023-10-02T04:58:29.518Z,20.06
2023-10-02T05:00:21.983Z,20.31
2023-10-02T05:02:17.892Z,20.26
2023-10-02T05:03:57.618Z,20.50
2023-10-02T05:05:36.625Z,20.37
2023-10-02T05:07:17.340Z,19.52
2023-10-02T05:08:55.850Z,20.02
2023-10-02T05:10:31.850Z,19.69
2023-10-02T05:12:08.559Z,19.55
2023-10-02T05:13:55.917Z,19.93
2023-10-02T05:15:31.876Z,20.15
2023-10-02T05:17:20.432Z,19.92
2023-10-02T05:18:57.100Z,19.57
2023-10-02T05:20:40.421Z,19.62
2023-10-02T05:22:18.188Z,19.92
2023-10-02T05:24:03.121Z,19.64
2023-10-02T05:25:39.260Z,19.90
2023-10-02T05:27:29.540Z,20.13
2023-10-02T05:29:10.761Z,19.73
2023-10-02T05:30:47.163Z,19.91
2023-10-02T05:32:25.399Z,19.99
2023-10-02T05:34:03.094Z,20.07
2023-10-02T05:35:47.340Z,20.04
2023-10-02T05:37:25.263Z,20.14
2023-10-02T05:39:18.629Z,20.05
2023-10-02T05:41:00.918Z,19.56
2023-10-02T05:42:39.391Z,20.09
2023-10-02T05:44:25.193Z,19.84
2023-10-02T05:46:09.121Z,20.54
2023-10-02T05:47:50.860Z,20.09
2023-10-02T05:49:28.518Z,20.22
2023-10-02T05:51:14.956Z,20.39
2023-10-02T05:52:50.958Z,20.53
2023-10-02T05:54:28.357Z,19.85
2023-10-02T05:56:12.923Z,20.55
2023-10-02T05:57:49.319Z,19.55
2023-10-02T05:59:27.527Z,20.14
2023-10-02T06:01:06.211Z,20.36
2023-10-02T06:03:00.953Z,19.45
2023-10-02T06:04:38.310Z,20.17
2023-10-02T06:06:23.420Z,19.99
2023-10-02T06:08:01.821Z,20.58
2023-10-02T06:09:48.017Z,20.26
2023-10-02T06:11:28.534Z,20.86
2023-10-02T06:13:08.214Z,20.74
2023-10-02T06:14:45.926Z,20.35
2023-10-02T06:16:25.587Z,20.54
2023-10-02T06:18:03.823Z,20.17
2023-10-02T06:19:46.860Z,20.01
2023-10-02T06:21:24.006Z,19.75
2023-10-02T06:23:08.196Z,20.14
2023-10-02T06:24:45.064Z,20.23
2023-10-02T06:26:21.412Z,20.26
2023-10-02T06:28:18.029Z,20.08
2023-10-02T06:29:55.012Z,20.53
2023-10-02T06:31:43.930Z,20.07
2023-10-02T06:33:23.755Z,20.31
2023-10-02T06:35:02.481Z,20.72
2023-10-02T06:36:47.981Z,20.67
2023-10-02T06:38:24.011Z,20.16
2023-10-02T06:40:16.339Z,20.24
2023-10-02T06:41:54.278Z,19.90
2023-10-02T06:43:34.912Z,20.23
2023-10-02T06:45:17.726Z,19.97
2023-10-02T06:46:58.157Z,19.92
2023-10-02T06:48:41.228Z,19.06
2023-10-02T06:50:25.779Z,19.75
2023-10-02T06:52:14.367Z,19.46
2023-10-02T06:53:50.066Z,19.96
2023-10-02T06:55:29.511Z,19.66
2023-10-02T06:57:13.667Z,19.46
2023-10-02T06:58:54.611Z,19.33
2023-10-02T07:00:49.870Z,19.46
2023-10-02T07:02:29.857Z,20.16
2023-10-02T07:04:11.568Z,19.38
2023-10-02T07:05:50.167Z,20.13
2023-10-02T07:07:32.286Z,20.44
2023-10-02T07:09:15.878Z,19.73
2023-10-02T07:10:52.524Z,20.20
2023-10-02T07:12:30.072Z,19.32
2023-10-02T07:14:08.751Z,20.31
2023-10-02T07:15:45.181Z,19.92
2023-10-02T07:17:21.066Z,20.30
2023-10-02T07:19:00.510Z,19.90
2023-10-02T07:20:44.764Z,20.17
2023-10-02T07:22:25.978Z,19.82
2023-10-02T07:24:05.085Z,20.36
2023-10-02T07:25:43.649Z,20.30
2023-10-02T07:27:26.324Z,20.77
2023-10-02T07:29:02.814Z,20.38
2023-10-02T07:30:39.499Z,19.28
2023-10-02T07:32:15.687Z,19.56
2023-10-02T07:33:57.808Z,20.73
2023-10-02T07:35:36.403Z,20.29
2023-10-02T07:37:15.533Z,20.21
2023-10-02T07:38:51.453Z,20.16
2023-10-02T07:40:48.748Z,20.69
2023-10-02T07:42:33.458Z,20.75
2023-10-02T07:44:12.757Z,20.34
2023-10-02T07:46:16.691Z,20.51
2023-10-02T07:48:12.880Z,21.14
2023-10-02T07:49:57.418Z,20.02
2023-10-02T07:51:40.646Z,20.16
2023-10-02T07:53:16.625Z,20.29
2023-10-02T07:54:52.775Z,20.47
2023-10-02T07:56:31.102Z,21.06
2023-10-02T07:58:07.351Z,20.84
2023-10-02T07:59:45.783Z,20.57
2023-10-02T08:01:24.003Z,20.46
2023-10-02T08:03:04.495Z,20.64
2023-10-02T08:04:49.802Z,20.39
2023-10-02T08:06:35.603Z,20.84
2023-10-02T08:08:12.360Z,20.53
2023-10-02T08:09:54.407Z,20.11
2023-10-02T08:11:30.119Z,20.77
2023-10-02T08:13:07.916Z,20.17
2023-10-02T08:14:49.079Z,20.75
2023-10-02T08:16:25.495Z,20.31
2023-10-02T08:18:01.315Z,20.71
2023-10-02T08:19:40.588Z,20.59
2023-10-02T08:21:16.372Z,20.72
2023-10-02T08:22:56.901Z,20.45
2023-10-02T08:24:32.809Z,20.58
2023-10-02T08:26:25.771Z,20.44
2023-10-02T08:28:03.278Z,20.24
2023-10-02T08:29:40.267Z,20.77
2023-10-02T08:31:16.481Z,19.86
2023-10-02T08:32:55.231Z,20.49
2023-10-02T08:34:31.617Z,20.12
2023-10-02T08:36:11.716Z,20.78
2023-10-02T08:37:47.869Z,21.28
2023-10-02T08:39:25.043Z,20.94
2023-10-02T08:41:09.067Z,20.19
2023-10-02T08:42:48.887Z,20.84
2023-10-02T08:44:24.706Z,20.36
2023-10-02T08:46:02.556Z,20.73
2023-10-02T08:47:40.358Z,21.23
2023-10-02T08:49:18.650Z,20.95
2023-10-02T08:51:00.893Z,21.18
2023-10-02T08:52:49.665Z,20.85
2023-10-02T08:54:29.603Z,21.26
2023-10-02T08:56:26.083Z,21.10
2023-10-02T08:58:21.099Z,20.89
2023-10-02T09:00:19.002Z,20.99
2023-10-02T09:02:18.767Z,20.92
2023-10-02T09:04:13.414Z,20.61
2023-10-02T09:05:52.245Z,20.15
2023-10-02T09:07:48.256Z,20.49
2023-10-02T09:09:28.203Z,21.22
2023-10-02T09:11:08.737Z,20.91
2023-10-02T09:12:54.036Z,21.28
2023-10-02T09:14:33.633Z,21.68
2023-10-02T09:16:16.439Z,21.65
2023-10-02T09:17:52.682Z,22.14
2023-10-02T09:19:32.472Z,22.01
2023-10-02T09:21:17.871Z,21.33
2023-10-02T09:23:10.083Z,21.49
2023-10-02T09:25:07.575Z,22.88
2023-10-02T09:26:45.460Z,22.62
2023-10-02T09:28:43.745Z,22.78
2023-10-02T09:30:23.740Z,21.56
2023-10-02T09:32:06.106Z,21.63
2023-10-02T09:33:53.802Z,22.50
2023-10-02T09:36:15.018Z,22.36
2023-10-02T09:38:05.898Z,23.13
2023-10-02T09:39:43.772Z,23.31
2023-10-02T09:41:22.272Z,22.97
2023-10-02T09:43:13.071Z,23.33
2023-10-02T09:44:53.428Z,23.09
2023-10-02T09:46:33.993Z,23.71
2023-10-02T09:48:29.801Z,23.07
2023-10-02T09:50:25.880Z,23.23
2023-10-02T09:52:16.961Z,24.01
2023-10-02T09:54:19.780Z,24.44
2023-10-02T09:56:17.129Z,24.73
2023-10-02T09:57:56.944Z,25.15
2023-10-02T09:59:56.996Z,25.30
2023-10-02T10:01:36.593Z,24.30
2023-10-02T10:03:26.984Z,25.23
2023-10-02T10:05:14.333Z,24.49
2023-10-02T10:07:08.986Z,24.39
2023-10-02T10:09:15.780Z,24.40
2023-10-02T10:10:54.416Z,23.96
2023-10-02T10:12:57.136Z,25.50
2023-10-02T10:14:40.146Z,24.97
2023-10-02T10:16:22.806Z,24.67
2023-10-02T10:17:59.285Z,25.49
2023-10-02T10:19:35.611Z,25.93
2023-10-02T10:22:02.341Z,25.60
2023-10-02T10:23:38.774Z,25.40
2023-10-02T10:25:23.572Z,25.64
2023-10-02T10:27:00.082Z,25.82
2023-10-02T10:28:53.091Z,24.84
2023-10-02T10:30:30.400Z,25.44
2023-10-02T10:32:26.454Z,26.54
2023-10-02T10:34:03.247Z,26.52
2023-10-02T10:35:54.058Z,26.27
2023-10-02T10:37:49.774Z,26.76
2023-10-02T10:39:56.860Z,25.71
2023-10-02T10:41:38.041Z,24.83
2023-10-02T10:43:16.057Z,25.93
2023-10-02T10:44:59.191Z,26.38
2023-10-02T10:46:39.249Z,26.78
2023-10-02T10:48:25.119Z,26.51
2023-10-02T10:50:30.161Z,26.48
2023-10-02T10:52:26.297Z,26.53
2023-10-02T10:54:45.973Z,26.53
2023-10-02T10:56:30.080Z,26.17
2023-10-02T10:58:12.387Z,26.68
2023-10-02T10:59:49.154Z,26.39
2023-10-02T11:01:25.791Z,26.39
2023-10-02T11:03:22.149Z,26.84
2023-10-02T11:04:58.614Z,26.36
2023-10-02T11:06:46.696Z,25.40
2023-10-02T11:08:30.769Z,26.84
2023-10-02T11:10:22.657Z,26.90
2023-10-02T11:11:58.425Z,27.69
2023-10-02T11:14:00.707Z,27.69
2023-10-02T11:15:49.275Z,27.39
2023-10-02T11:17:35.045Z,27.18
2023-10-02T11:19:23.953Z,27.70
2023-10-02T11:21:00.300Z,27.47
2023-10-02T11:22:54.094Z,28.09
2023-10-02T11:24:31.038Z,28.05
2023-10-02T11:26:16.002Z,26.51
2023-10-02T11:28:01.252Z,26.72
2023-10-02T11:29:43.352Z,27.82
2023-10-02T11:31:47.701Z,27.84
2023-10-02T11:33:30.786Z,28.18
2023-10-02T11:35:09.624Z,27.32
2023-10-02T11:36:57.684Z,27.06
2023-10-02T11:38:33.846Z,27.88
2023-10-02T11:40:10.590Z,27.90
2023-10-02T11:41:48.779Z,27.21
2023-10-02T11:43:24.822Z,27.99
2023-10-02T11:45:00.791Z,27.86
2023-10-02T11:46:37.211Z,27.66
2023-10-02T11:48:14.813Z,28.36
2023-10-02T11:49:50.555Z,27.87
2023-10-02T11:51:33.031Z,27.32
2023-10-02T11:53:09.072Z,28.03
2023-10-02T11:54:45.528Z,28.34
2023-10-02T11:56:22.652Z,28.10
2023-10-02T11:57:58.574Z,28.45
2023-10-02T11:59:34.749Z,28.91
2023-10-02T12:01:11.028Z,29.16
2023-10-02T12:02:48.605Z,28.95
2023-10-02T12:04:24.487Z,27.88
2023-10-02T12:06:00.514Z,28.21
2023-10-02T12:07:36.822Z,29.00
2023-10-02T12:09:19.863Z,27.76
2023-10-02T12:10:58.592Z,28.15
2023-10-02T12:12:34.876Z,28.07
2023-10-02T12:14:11.168Z,27.78
2023-10-02T12:15:51.998Z,27.97
2023-10-02T12:17:27.980Z,28.26
2023-10-02T12:19:04.092Z,29.17
2023-10-02T12:20:44.866Z,27.92
2023-10-02T12:22:21.389Z,27.57
2023-10-02T12:24:00.969Z,28.60
2023-10-02T12:25:38.516Z,28.76
2023-10-02T12:27:17.481Z,29.39
2023-10-02T12:28:53.342Z,28.86
2023-10-02T12:30:30.858Z,27.96
2023-10-02T12:32:07.888Z,28.86
2023-10-02T12:33:45.408Z,28.97
2023-10-02T12:35:21.318Z,28.81
2023-10-02T12:36:57.301Z,29.08
2023-10-02T12:38:33.629Z,28.53
2023-10-02T12:40:20.541Z,28.89
2023-10-02T12:41:56.454Z,28.88
2023-10-02T12:43:32.681Z,28.86
2023-10-02T12:45:09.076Z,28.30
2023-10-02T12:46:45.797Z,28.96
2023-10-02T12:48:21.672Z,27.83
2023-10-02T12:49:57.765Z,28.42
2023-10-02T12:51:33.660Z,27.47
2023-10-02T12:53:12.225Z,28.50
2023-10-02T12:54:50.304Z,29.11
2023-10-02T12:56:28.958Z,29.46
2023-10-02T12:58:07.962Z,28.56
2023-10-02T12:59:45.970Z,26.94
2023-10-02T13:01:31.906Z,27.89
2023-10-02T13:03:09.916Z,28.89
2023-10-02T13:04:45.783Z,29.49
2023-10-02T13:06:22.998Z,29.70
2023-10-02T13:07:58.844Z,29.79
2023-10-02T13:09:35.216Z,29.00
2023-10-02T13:11:15.267Z,28.95
2023-10-02T13:12:51.703Z,29.06
2023-10-02T13:14:27.410Z,28.60
2023-10-02T13:16:03.519Z,28.15
2023-10-02T13:17:40.204Z,28.86
2023-10-02T13:19:17.171Z,28.98
2023-10-02T13:20:56.742Z,29.02
2023-10-02T13:22:34.676Z,29.50
2023-10-02T13:24:17.609Z,28.30
2023-10-02T13:25:56.029Z,28.51
2023-10-02T13:27:33.460Z,29.11
2023-10-02T13:29:09.792Z,28.89
2023-10-02T13:30:45.545Z,28.41
2023-10-02T13:32:21.900Z,29.15
2023-10-02T13:34:02.251Z,29.09
2023-10-02T13:37:56.079Z,27.84
2023-10-02T13:39:32.580Z,28.70
2023-10-02T13:41:14.129Z,28.28
2023-10-02T13:42:51.380Z,28.82
2023-10-02T13:44:33.177Z,28.86
2023-10-02T13:46:11.768Z,29.09
2023-10-02T13:47:51.385Z,29.05
2023-10-02T13:49:27.574Z,28.62
2023-10-02T13:51:05.017Z,28.76
2023-10-02T13:54:17.203Z,27.75
2023-10-02T13:55:53.488Z,28.69
2023-10-02T13:57:29.226Z,28.11
2023-10-02T13:59:05.856Z,29.02
2023-10-02T14:00:42.553Z,29.48
2023-10-02T14:02:19.120Z,28.36
2023-10-02T14:03:56.478Z,28.24
2023-10-02T14:05:37.779Z,28.90
2023-10-02T14:07:14.871Z,28.82
2023-10-02T14:08:53.902Z,28.39
2023-10-02T14:10:31.514Z,28.01
2023-10-02T14:12:07.686Z,28.07
2023-10-02T14:13:43.673Z,27.64
2023-10-02T14:15:20.025Z,28.13
2023-10-02T14:16:55.996Z,27.87
2023-10-02T14:18:32.081Z,28.43
2023-10-02T14:20:14.382Z,28.81
2023-10-02T14:21:50.902Z,29.06
2023-10-02T14:23:28.090Z,28.50
2023-10-02T14:25:08.653Z,28.59
2023-10-02T14:26:44.688Z,28.34
2023-10-02T14:28:20.937Z,28.92
2023-10-02T14:29:56.845Z,28.72
2023-10-02T14:31:33.844Z,28.37
2023-10-02T14:33:09.898Z,28.92
2023-10-02T14:34:46.539Z,28.63
2023-10-02T14:36:22.342Z,28.84
2023-10-02T14:37:58.703Z,28.49
2023-10-02T14:39:38.187Z,28.30
2023-10-02T14:41:14.588Z,28.46
2023-10-02T14:42:50.549Z,28.47
2023-10-02T14:44:26.465Z,28.95
2023-10-02T14:46:02.578Z,28.64
2023-10-02T14:47:38.909Z,28.28
2023-10-02T14:49:14.786Z,28.45
2023-10-02T14:50:50.820Z,28.70
2023-10-02T14:52:27.252Z,28.24
2023-10-02T14:54:04.521Z,28.58
2023-10-02T14:55:51.021Z,28.52
2023-10-02T14:57:28.399Z,28.86
2023-10-02T14:59:06.538Z,28.59
2023-10-02T15:00:43.166Z,28.78
2023-10-02T15:02:19.429Z,28.16
2023-10-02T15:03:57.550Z,27.87
2023-10-02T15:05:33.873Z,28.15
2023-10-02T15:07:10.176Z,28.65
2023-10-02T15:08:45.958Z,28.17
2023-10-02T15:10:25.362Z,28.42
2023-10-02T15:12:01.092Z,28.16
2023-10-02T15:13:38.802Z,28.16
2023-10-02T15:15:17.420Z,28.44
2023-10-02T15:16:53.547Z,28.72
2023-10-02T15:18:29.370Z,28.78
2023-10-02T15:20:06.141Z,28.44
2023-10-02T15:21:44.845Z,28.49
2023-10-02T15:23:21.944Z,28.76
2023-10-02T15:24:58.070Z,28.06
2023-10-02T15:26:34.819Z,27.92
2023-10-02T15:28:10.671Z,28.20
2023-10-02T15:29:47.278Z,27.57
2023-10-02T15:31:23.060Z,27.90
2023-10-02T15:33:00.493Z,28.20
2023-10-02T15:34:36.624Z,27.68
2023-10-02T15:36:17.846Z,27.56
2023-10-02T15:37:56.717Z,27.12
2023-10-02T15:39:33.111Z,27.66
2023-10-02T15:41:27.215Z,28.01
2023-10-02T15:43:04.107Z,27.88
2023-10-02T15:44:44.204Z,28.08
2023-10-02T15:46:20.573Z,27.77
2023-10-02T15:47:57.520Z,27.68
2023-10-02T15:49:33.609Z,27.76
2023-10-02T15:51:10.106Z,27.66
2023-10-02T15:52:50.094Z,26.82
2023-10-02T15:54:27.810Z,27.58
2023-10-02T15:56:03.742Z,27.86
2023-10-02T15:57:44.312Z,27.03
2023-10-02T15:59:20.734Z,27.62
2023-10-02T16:00:58.840Z,27.42
2023-10-02T16:02:41.121Z,27.48
2023-10-02T16:04:19.102Z,27.69
2023-10-02T16:05:55.422Z,27.71
2023-10-02T16:07:31.670Z,27.44
2023-10-02T16:09:07.633Z,27.25
2023-10-02T16:10:43.415Z,27.25
2023-10-02T16:12:20.066Z,27.13
2023-10-02T16:13:58.623Z,27.54
2023-10-02T16:15:37.232Z,26.90
2023-10-02T16:17:13.204Z,26.88
2023-10-02T16:18:49.467Z,27.55
2023-10-02T16:20:26.151Z,27.86
2023-10-02T16:22:02.260Z,27.89
2023-10-02T16:23:42.982Z,27.52
2023-10-02T16:25:21.370Z,27.38
2023-10-02T16:26:58.022Z,27.02
2023-10-02T16:28:35.483Z,27.19
2023-10-02T16:30:13.640Z,27.10
2023-10-02T16:31:49.932Z,26.71
2023-10-02T16:33:26.113Z,26.72
2023-10-02T16:35:07.089Z,26.97
2023-10-02T16:36:43.511Z,26.65
2023-10-02T16:38:21.070Z,26.51
2023-10-02T16:40:01.878Z,26.64
2023-10-02T16:41:38.668Z,27.04
2023-10-02T16:43:14.610Z,27.42
2023-10-02T16:44:50.893Z,26.93
2023-10-02T16:46:27.399Z,26.64
2023-10-02T16:48:04.776Z,26.41
2023-10-02T16:49:46.739Z,26.37
2023-10-02T16:51:23.301Z,26.43
2023-10-02T16:52:59.669Z,25.89
2023-10-02T16:54:35.803Z,25.91
2023-10-02T16:56:15.647Z,26.26
2023-10-02T16:57:52.761Z,26.11
2023-10-02T16:59:30.983Z,26.05
2023-10-02T17:01:11.427Z,26.33
2023-10-02T17:02:47.530Z,25.75
2023-10-02T17:04:27.861Z,25.65
2023-10-02T17:06:16.561Z,25.60
2023-10-02T17:07:52.958Z,25.72
2023-10-02T17:09:30.514Z,25.45
2023-10-02T17:11:14.923Z,25.62
2023-10-02T17:12:53.236Z,25.20
2023-10-02T17:14:29.186Z,25.14
2023-10-02T17:16:05.292Z,25.51
2023-10-02T17:17:46.212Z,25.07
2023-10-02T17:19:24.369Z,25.02
2023-10-02T17:21:00.852Z,25.06
2023-10-02T17:22:40.473Z,24.94
2023-10-02T17:24:17.005Z,25.46
2023-10-02T17:25:52.868Z,24.87
2023-10-02T17:27:28.720Z,25.44
2023-10-02T17:29:05.160Z,24.46
2023-10-02T17:30:41.687Z,24.41
2023-10-02T17:32:17.635Z,25.19
2023-10-02T17:33:53.674Z,25.03
2023-10-02T17:35:29.496Z,24.82
2023-10-02T17:37:06.909Z,25.27
2023-10-02T17:38:43.790Z,24.44
2023-10-02T17:40:25.549Z,24.51
2023-10-02T17:42:01.710Z,24.03
2023-10-02T17:43:38.147Z,23.84
2023-10-02T17:45:14.783Z,23.86
2023-10-02T17:46:51.081Z,23.91
2023-10-02T17:48:26.948Z,23.76
2023-10-02T17:50:02.958Z,24.40
2023-10-02T17:51:40.594Z,24.09
2023-10-02T17:53:17.131Z,24.04
2023-10-02T17:54:53.000Z,23.69
2023-10-02T17:56:29.029Z,23.87
2023-10-02T17:58:05.324Z,24.05
2023-10-02T17:59:42.615Z,24.01
2023-10-02T18:01:18.498Z,23.83
2023-10-02T18:02:54.577Z,24.19
2023-10-02T18:04:31.046Z,23.74
2023-10-02T18:06:07.311Z,23.81
2023-10-02T18:07:47.301Z,23.85
2023-10-02T18:09:24.964Z,24.53
2023-10-02T18:11:01.245Z,23.58
2023-10-02T18:12:37.763Z,23.87
2023-10-02T18:14:14.215Z,23.61
2023-10-02T18:15:50.201Z,23.30
2023-10-02T18:17:26.580Z,23.46
2023-10-02T18:19:03.144Z,23.48
2023-10-02T18:20:45.117Z,23.15
2023-10-02T18:22:21.120Z,23.34
2023-10-02T18:23:57.057Z,23.58
2023-10-02T18:25:33.822Z,23.19
2023-10-02T18:27:09.858Z,23.11
2023-10-02T18:28:45.943Z,23.30
2023-10-02T18:30:23.850Z,22.99
2023-10-02T18:32:00.775Z,23.01
2023-10-02T18:33:36.903Z,22.98
2023-10-02T18:35:12.961Z,22.63
2023-10-02T18:36:51.366Z,22.52
2023-10-02T18:38:29.185Z,22.43
2023-10-02T18:40:10.172Z,22.52
2023-10-02T18:41:46.371Z,22.80
2023-10-02T18:43:22.351Z,22.71
2023-10-02T18:45:01.829Z,22.79
2023-10-02T18:46:39.405Z,22.85
2023-10-02T18:48:16.941Z,22.86
2023-10-02T18:49:53.180Z,22.79
2023-10-02T18:51:31.636Z,23.06
2023-10-02T18:53:07.495Z,23.54
2023-10-02T18:54:43.462Z,23.07
2023-10-02T18:56:19.424Z,23.12
2023-10-02T18:57:55.754Z,23.00
2023-10-02T18:59:31.625Z,23.24
2023-10-02T19:01:16.891Z,23.05
2023-10-02T19:02:53.008Z,22.99
2023-10-02T19:04:30.276Z,22.97
2023-10-02T19:06:06.900Z,23.15
2023-10-02T19:07:44.285Z,23.17
2023-10-02T19:09:22.120Z,22.91
2023-10-02T19:10:58.447Z,22.93
2023-10-02T19:12:35.397Z,23.51
2023-10-02T19:14:11.400Z,23.26
2023-10-02T19:15:47.586Z,22.22
2023-10-02T19:17:24.282Z,22.22
2023-10-02T19:19:00.043Z,22.44
2023-10-02T19:20:36.087Z,22.74
2023-10-02T19:22:12.082Z,22.79
2023-10-02T19:23:49.240Z,22.37
2023-10-02T19:25:25.043Z,22.37
2023-10-02T19:27:01.238Z,22.59
2023-10-02T19:28:37.464Z,23.22
2023-10-02T19:30:15.197Z,22.43
2023-10-02T19:31:52.548Z,23.16
2023-10-02T19:33:31.946Z,22.58
2023-10-02T19:35:08.191Z,22.42
2023-10-02T19:36:44.436Z,22.61
2023-10-02T19:38:22.236Z,22.62
2023-10-02T19:39:59.600Z,22.78
2023-10-02T19:41:35.755Z,22.40
2023-10-02T19:43:12.781Z,22.40
2023-10-02T19:44:50.838Z,22.54
2023-10-02T19:46:27.267Z,22.29
2023-10-02T19:48:03.839Z,22.75
2023-10-02T19:49:40.210Z,22.67
2023-10-02T19:51:16.964Z,22.36
2023-10-02T19:52:52.980Z,23.04
2023-10-02T19:54:29.293Z,23.17
2023-10-02T19:56:06.367Z,22.74
2023-10-02T19:57:42.166Z,23.26
2023-10-02T19:59:18.146Z,23.31
2023-10-02T20:00:54.173Z,23.33
2023-10-02T20:02:30.676Z,23.12
2023-10-02T20:04:06.779Z,23.68
2023-10-02T20:05:42.717Z,23.08
2023-10-02T20:07:18.690Z,23.08
2023-10-02T20:08:56.411Z,23.18
2023-10-02T20:10:32.239Z,22.54
2023-10-02T20:12:09.687Z,22.71
2023-10-02T20:13:47.493Z,22.48
2023-10-02T20:15:26.493Z,22.59
2023-10-02T20:17:03.585Z,22.31
2023-10-02T20:18:39.512Z,22.25
2023-10-02T20:20:16.104Z,22.22
2023-10-02T20:21:52.451Z,22.13
2023-10-02T20:23:37.285Z,22.88
2023-10-02T20:25:18.164Z,22.45
2023-10-02T20:26:53.880Z,21.87
2023-10-02T20:28:30.134Z,22.59
2023-10-02T20:30:06.727Z,22.44
2023-10-02T20:31:45.211Z,22.69
2023-10-02T20:33:21.393Z,22.74
2023-10-02T20:34:57.940Z,22.64
2023-10-02T20:36:33.654Z,22.71
2023-10-02T20:38:14.094Z,22.56
2023-10-02T20:39:50.004Z,22.28
2023-10-02T20:41:27.418Z,22.37
2023-10-02T20:43:03.708Z,22.19
2023-10-02T20:44:40.219Z,21.84
2023-10-02T20:46:17.000Z,22.08
2023-10-02T20:47:53.460Z,22.69
2023-10-02T20:49:29.211Z,21.83
2023-10-02T20:51:05.456Z,21.48
2023-10-02T20:52:41.293Z,21.64
2023-10-02T20:54:17.624Z,22.14
2023-10-02T20:55:56.334Z,22.22
2023-10-02T20:57:32.629Z,22.48
2023-10-02T20:59:20.387Z,22.72
2023-10-02T21:00:56.756Z,22.72
2023-10-02T21:02:33.678Z,22.20
2023-10-02T21:04:09.654Z,22.03
2023-10-02T21:05:45.664Z,22.24
2023-10-02T21:07:22.116Z,22.23
2023-10-02T21:09:01.253Z,22.10
2023-10-02T21:10:37.363Z,22.37
2023-10-02T21:12:13.071Z,22.74
2023-10-02T21:13:49.340Z,22.43
2023-10-02T21:15:25.272Z,22.82
2023-10-02T21:17:01.262Z,22.17
2023-10-02T21:18:37.063Z,21.72
2023-10-02T21:20:16.137Z,21.60
2023-10-02T21:21:53.627Z,22.32
2023-10-02T21:23:29.892Z,22.58
2023-10-02T21:25:06.267Z,22.06
2023-10-02T21:26:42.621Z,21.54
2023-10-02T21:28:19.096Z,21.27
2023-10-02T21:29:55.191Z,21.47
2023-10-02T21:31:30.970Z,21.65
2023-10-02T21:33:07.318Z,21.59
2023-10-02T21:34:43.351Z,21.37
2023-10-02T21:36:19.305Z,21.48
2023-10-02T21:37:55.889Z,21.13